createdAt,value
2022-10-07T00:01:51.130Z,101086.53
2022-10-07T00:04:18.305Z,101078.66
2022-10-07T00:06:46.007Z,101076.03
2022-10-07T00:09:16.183Z,101080.41
2022-10-07T00:11:43.183Z,101083.91
2022-10-07T00:14:12.225Z,101070.75
2022-10-07T00:16:41.216Z,101076.94
2022-10-07T00:19:14.186Z,101079.56
2022-10-07T00:22:14.196Z,101082.16
2022-10-07T00:24:41.006Z,101076.91
2022-10-07T00:27:07.971Z,101073.41
2022-10-07T00:29:44.259Z,101071.66
2022-10-07T00:32:13.198Z,101075.16
2022-10-07T00:34:45.203Z,101068.13
2022-10-07T00:37:23.024Z,101075.09
2022-10-07T00:39:50.011Z,101068.97
2022-10-07T00:42:18.229Z,101073.41
2022-10-07T00:44:48.953Z,101068.16
2022-10-07T00:47:34.371Z,101065.53
2022-10-07T00:50:08.579Z,101063.75
2022-10-07T00:52:47.002Z,101057.66
2022-10-07T00:55:16.813Z,101062.91
2022-10-07T00:57:45.273Z,101058.53
2022-10-07T01:00:16.453Z,101061.16
2022-10-07T01:02:43.339Z,101058.50
2022-10-07T01:05:10.925Z,101048.88
2022-10-07T01:07:38.836Z,101047.13
2022-10-07T01:10:06.466Z,101051.50
2022-10-07T01:12:43.900Z,101048.88
2022-10-07T01:15:10.745Z,101048.00
2022-10-07T01:17:41.945Z,101044.50
2022-10-07T01:20:28.698Z,101041.88
2022-10-07T01:23:21.798Z,101046.22
2022-10-07T01:26:10.563Z,101042.72
2022-10-07T01:28:47.087Z,101048.00
2022-10-07T01:31:17.592Z,101049.78
2022-10-07T01:33:46.007Z,101044.50
2022-10-07T01:36:24.136Z,101044.53
2022-10-07T01:38:57.384Z,101034.03
2022-10-07T01:41:25.595Z,101023.53
2022-10-07T01:43:55.516Z,101025.25
2022-10-07T01:46:36.459Z,101025.25
2022-10-07T01:49:05.050Z,101015.63
2022-10-07T01:51:40.763Z,101013.88
2022-10-07T01:54:10.644Z,101011.22
2022-10-07T01:57:02.382Z,101013.84
2022-10-07T01:59:30.456Z,101015.63
2022-10-07T02:02:12.491Z,101002.50
2022-10-07T02:04:59.456Z,101004.28
2022-10-07T02:07:41.790Z,100995.53
2022-10-07T02:10:32.103Z,101000.75
2022-10-07T02:12:59.556Z,100998.94
2022-10-07T02:15:45.196Z,100998.03
2022-10-07T02:18:15.722Z,100995.38
2022-10-07T02:20:52.142Z,100998.03
2022-10-07T02:23:20.558Z,100997.16
2022-10-07T02:26:00.626Z,100991.88
2022-10-07T02:28:28.383Z,100989.31
2022-10-07T02:31:07.623Z,100993.69
2022-10-07T02:33:54.507Z,100985.84
2022-10-07T02:36:36.540Z,100985.88
2022-10-07T02:39:04.121Z,100981.44
2022-10-07T02:41:52.439Z,100983.25
2022-10-07T02:44:27.218Z,100980.63
2022-10-07T02:47:14.447Z,100980.63
2022-10-07T02:49:49.706Z,100980.59
2022-10-07T02:52:18.840Z,100973.56
2022-10-07T02:55:00.700Z,100979.69
2022-10-07T02:57:30.674Z,100977.03
2022-10-07T02:59:59.069Z,100972.69
2022-10-07T03:02:46.837Z,100967.38
2022-10-07T03:05:28.849Z,100967.44
2022-10-07T03:08:19.927Z,100964.78
2022-10-07T03:10:54.995Z,100955.06
2022-10-07T03:13:26.178Z,100967.41
2022-10-07T03:15:54.041Z,100966.50
2022-10-07T03:18:39.311Z,100957.69
2022-10-07T03:21:09.089Z,100963.75
2022-10-07T03:23:43.734Z,100958.47
2022-10-07T03:26:10.682Z,100959.38
2022-10-07T03:28:44.264Z,100955.00
2022-10-07T03:31:12.209Z,100961.94
2022-10-07T03:33:42.115Z,100953.19
2022-10-07T03:36:09.305Z,100953.28
2022-10-07T03:38:49.584Z,100958.59
2022-10-07T03:41:16.883Z,100946.28
2022-10-07T03:43:46.888Z,100947.19
2022-10-07T03:46:20.780Z,100942.84
2022-10-07T03:48:51.853Z,100941.13
2022-10-07T03:51:18.849Z,100949.84
2022-10-07T03:53:57.705Z,100933.19
2022-10-07T03:56:25.729Z,100942.78
2022-10-07T03:59:00.076Z,100939.19
2022-10-07T04:01:27.012Z,100933.06
2022-10-07T04:03:58.018Z,100931.22
2022-10-07T04:06:24.965Z,100931.25
2022-10-07T04:09:00.836Z,100932.31
2022-10-07T04:11:27.767Z,100923.56
2022-10-07T04:13:55.885Z,100921.75
2022-10-07T04:16:23.318Z,100929.44
2022-10-07T04:18:50.243Z,100919.72
2022-10-07T04:21:17.452Z,100923.28
2022-10-07T04:23:46.310Z,100924.06
2022-10-07T04:26:14.239Z,100922.28
2022-10-07T04:28:41.378Z,100919.59
2022-10-07T04:31:09.366Z,100916.25
2022-10-07T04:33:40.348Z,100915.56
2022-10-07T04:36:09.517Z,100913.03
2022-10-07T04:38:36.543Z,100911.28
2022-10-07T04:41:05.586Z,100902.53
2022-10-07T04:43:34.285Z,100906.00
2022-10-07T04:46:04.236Z,100905.09
2022-10-07T04:48:34.723Z,100906.00
2022-10-07T04:51:05.997Z,100903.41
2022-10-07T04:53:34.347Z,100909.50
2022-10-07T04:56:02.231Z,100911.28
2022-10-07T04:58:31.831Z,100899.91
2022-10-07T05:00:59.644Z,100902.53
2022-10-07T05:03:27.754Z,100892.91
2022-10-07T05:05:56.859Z,100903.41
2022-10-07T05:08:29.993Z,100902.50
2022-10-07T05:10:57.481Z,100899.78
2022-10-07T05:13:26.316Z,100903.28
2022-10-07T05:15:53.120Z,100897.97
2022-10-07T05:18:21.497Z,100901.34
2022-10-07T05:20:49.912Z,100894.38
2022-10-07T05:23:24.417Z,100887.41
2022-10-07T05:26:04.962Z,100886.56
2022-10-07T05:28:40.430Z,100891.88
2022-10-07T05:31:09.068Z,100886.63
2022-10-07T05:33:38.089Z,100882.34
2022-10-07T05:36:10.152Z,100893.56
2022-10-07T05:38:43.525Z,100890.91
2022-10-07T05:41:11.412Z,100888.25
2022-10-07T05:43:46.933Z,100897.97
2022-10-07T05:46:15.355Z,100888.56
2022-10-07T05:48:46.286Z,100893.84
2022-10-07T05:51:27.396Z,100890.38
2022-10-07T05:53:57.236Z,100902.63
2022-10-07T05:56:37.055Z,100889.53
2022-10-07T05:59:05.139Z,100886.97
2022-10-07T06:01:33.225Z,100897.47
2022-10-07T06:04:00.216Z,100895.75
2022-10-07T06:06:27.115Z,100897.53
2022-10-07T06:09:23.664Z,100898.41
2022-10-07T06:12:09.423Z,100892.31
2022-10-07T06:14:43.135Z,100900.16
2022-10-07T06:17:12.085Z,100898.41
2022-10-07T06:19:40.031Z,100901.91
2022-10-07T06:22:15.137Z,100895.69
2022-10-07T06:24:42.086Z,100883.44
2022-10-07T06:27:12.001Z,100879.00
2022-10-07T06:29:48.118Z,100883.22
2022-10-07T06:32:14.876Z,100876.97
2022-10-07T06:35:09.163Z,100870.72
2022-10-07T06:37:47.452Z,100875.66
2022-10-07T06:40:16.861Z,100873.75
2022-10-07T06:42:43.769Z,100868.22
2022-10-07T06:45:12.788Z,100870.69
2022-10-07T06:47:39.644Z,100867.72
2022-10-07T06:50:07.808Z,100867.69
2022-10-07T06:52:38.846Z,100861.41
2022-10-07T06:55:15.255Z,100862.19
2022-10-07T06:57:46.464Z,100860.34
2022-10-07T07:00:20.795Z,100869.84
2022-10-07T07:02:48.749Z,100854.72
2022-10-07T07:05:17.737Z,100859.78
2022-10-07T07:07:45.762Z,100858.72
2022-10-07T07:10:12.899Z,100853.16
2022-10-07T07:12:41.089Z,100860.81
2022-10-07T07:15:21.807Z,100854.22
2022-10-07T07:17:50.245Z,100847.56
2022-10-07T07:20:18.186Z,100855.66
2022-10-07T07:22:47.047Z,100848.19
2022-10-07T07:25:14.805Z,100853.84
2022-10-07T07:28:13.489Z,100838.72
2022-10-07T07:30:44.530Z,100841.75
2022-10-07T07:33:13.355Z,100834.25
2022-10-07T07:35:45.699Z,100833.78
2022-10-07T07:38:15.820Z,100836.06
2022-10-07T07:40:42.545Z,100827.75
2022-10-07T07:43:20.545Z,100830.91
2022-10-07T07:45:48.619Z,100825.25
2022-10-07T07:48:17.565Z,100822.88
2022-10-07T07:51:00.812Z,100828.66
2022-10-07T07:53:27.768Z,100815.00
2022-10-07T07:56:09.300Z,100814.41
2022-10-07T07:58:45.453Z,100807.50
2022-10-07T08:01:14.423Z,100803.72
2022-10-07T08:03:46.697Z,100801.19
2022-10-07T08:06:15.537Z,100789.28
2022-10-07T08:08:43.453Z,100802.09
2022-10-07T08:11:11.276Z,100793.75
2022-10-07T08:13:47.339Z,100795.78
2022-10-07T08:16:16.146Z,100793.44
2022-10-07T08:18:44.623Z,100791.81
2022-10-07T08:21:11.891Z,100785.41
2022-10-07T08:23:40.231Z,100787.03
2022-10-07T08:26:08.720Z,100787.31
2022-10-07T08:28:42.703Z,100790.03
2022-10-07T08:31:15.705Z,100782.06
2022-10-07T08:33:45.178Z,100779.75
2022-10-07T08:36:14.429Z,100781.59
2022-10-07T08:38:52.993Z,100768.34
2022-10-07T08:41:40.047Z,100782.72
2022-10-07T08:44:27.299Z,100773.94
2022-10-07T08:47:07.609Z,100768.13
2022-10-07T08:49:44.306Z,100764.63
2022-10-07T08:52:21.218Z,100759.59
2022-10-07T08:54:49.713Z,100754.91
2022-10-07T08:57:34.953Z,100758.19
2022-10-07T09:00:07.268Z,100758.13
2022-10-07T09:02:54.114Z,100755.81
2022-10-07T09:05:21.056Z,100751.94
2022-10-07T09:07:54.348Z,100742.69
2022-10-07T09:10:25.340Z,100743.09
2022-10-07T09:12:59.262Z,100739.38
2022-10-07T09:15:41.672Z,100733.69
2022-10-07T09:18:36.547Z,100733.28
2022-10-07T09:21:08.518Z,100727.41
2022-10-07T09:23:43.661Z,100737.81
2022-10-07T09:26:12.168Z,100721.75
2022-10-07T09:28:40.369Z,100723.50
2022-10-07T09:31:08.860Z,100714.69
2022-10-07T09:33:42.615Z,100714.94
2022-10-07T09:36:11.654Z,100702.34
2022-10-07T09:38:42.117Z,100698.34
2022-10-07T09:41:17.657Z,100702.69
2022-10-07T09:43:50.858Z,100702.66
2022-10-07T09:46:42.944Z,100699.53
2022-10-07T09:49:27.418Z,100685.22
2022-10-07T09:52:02.448Z,100690.47
2022-10-07T09:54:30.622Z,100690.19
2022-10-07T09:56:58.614Z,100692.31
2022-10-07T09:59:32.334Z,100692.09
2022-10-07T10:02:10.165Z,100691.66
2022-10-07T10:04:38.235Z,100687.84
2022-10-07T10:07:06.370Z,100686.59
2022-10-07T10:09:40.316Z,100682.66
2022-10-07T10:12:20.450Z,100677.56
2022-10-07T10:14:48.274Z,100677.03
2022-10-07T10:17:31.636Z,100681.69
2022-10-07T10:20:22.984Z,100663.97
2022-10-07T10:23:15.206Z,100660.03
2022-10-07T10:26:07.878Z,100646.31
2022-10-07T10:28:45.300Z,100640.72
2022-10-07T10:31:29.672Z,100642.97
2022-10-07T10:34:02.265Z,100629.50
2022-10-07T10:36:33.211Z,100629.88
2022-10-07T10:39:23.412Z,100624.25
2022-10-07T10:41:52.818Z,100626.06
2022-10-07T10:44:32.450Z,100617.81
2022-10-07T10:47:04.189Z,100598.78
2022-10-07T10:49:38.140Z,100596.38
2022-10-07T10:52:13.754Z,100588.97
2022-10-07T10:55:01.646Z,100593.47
2022-10-07T10:57:45.496Z,100583.56
2022-10-07T11:00:25.030Z,100586.06
2022-10-07T11:02:52.977Z,100578.34
2022-10-07T11:05:48.132Z,100576.00
2022-10-07T11:08:27.771Z,100560.53
2022-10-07T11:10:58.806Z,100564.13
2022-10-07T11:13:27.723Z,100549.44
2022-10-07T11:15:59.957Z,100545.91
2022-10-07T11:18:31.830Z,100548.41
2022-10-07T11:20:59.970Z,100530.75
2022-10-07T11:23:32.812Z,100527.06
2022-10-07T11:26:19.247Z,100526.09
2022-10-07T11:28:46.851Z,100519.53
2022-10-07T11:31:20.437Z,100511.97
2022-10-07T11:33:48.329Z,100510.34
2022-10-07T11:36:37.802Z,100509.22
2022-10-07T11:39:05.709Z,100498.00
2022-10-07T11:41:35.412Z,100496.06
2022-10-07T11:44:19.035Z,100486.00
2022-10-07T11:46:46.551Z,100487.00
2022-10-07T11:49:13.391Z,100484.53
2022-10-07T11:52:00.745Z,100475.94
2022-10-07T11:54:32.066Z,100467.88
2022-10-07T11:57:17.436Z,100458.56
2022-10-07T11:59:48.271Z,100457.31
2022-10-07T12:02:38.835Z,100452.66
2022-10-07T12:05:06.079Z,100450.41
2022-10-07T12:07:36.553Z,100450.59
2022-10-07T12:10:18.588Z,100437.72
2022-10-07T12:13:04.222Z,100438.50
2022-10-07T12:15:33.166Z,100426.94
2022-10-07T12:18:03.050Z,100431.78
2022-10-07T12:20:58.052Z,100423.63
2022-10-07T12:23:31.191Z,100414.84
2022-10-07T12:26:03.345Z,100410.22
2022-10-07T12:28:34.744Z,100399.19
2022-10-07T12:31:01.740Z,100399.09
2022-10-07T12:33:43.717Z,100396.78
2022-10-07T12:36:38.386Z,100387.69
2022-10-07T12:39:10.167Z,100387.19
2022-10-07T12:41:40.593Z,100383.88
2022-10-07T12:44:08.663Z,100381.69
2022-10-07T12:46:56.857Z,100371.06
2022-10-07T12:49:52.355Z,100370.72
2022-10-07T12:52:24.682Z,100362.00
2022-10-07T12:55:01.730Z,100362.69
2022-10-07T12:57:33.104Z,100348.41
2022-10-07T13:00:08.277Z,100351.81
2022-10-07T13:02:55.012Z,100346.09
2022-10-07T13:05:40.672Z,100350.66
2022-10-07T13:08:07.493Z,100327.88
2022-10-07T13:10:41.417Z,100323.16
2022-10-07T13:13:27.547Z,100333.66
2022-10-07T13:15:58.417Z,100325.84
2022-10-07T13:18:45.388Z,100319.72
2022-10-07T13:21:13.387Z,100316.41
2022-10-07T13:23:49.409Z,100313.72
2022-10-07T13:26:16.353Z,100310.72
2022-10-07T13:29:08.064Z,100308.69
2022-10-07T13:31:37.229Z,100307.28
2022-10-07T13:34:15.631Z,100293.53
2022-10-07T13:36:44.529Z,100294.56
2022-10-07T13:39:31.521Z,100279.81
2022-10-07T13:41:59.830Z,100275.34
2022-10-07T13:44:30.671Z,100270.81
2022-10-07T13:47:02.473Z,100273.56
2022-10-07T13:49:30.954Z,100262.88
2022-10-07T13:52:00.245Z,100264.50
2022-10-07T13:54:28.210Z,100259.72
2022-10-07T13:56:58.252Z,100255.63
2022-10-07T13:59:29.654Z,100239.25
2022-10-07T14:01:58.674Z,100245.34
2022-10-07T14:04:34.901Z,100231.38
2022-10-07T14:07:23.622Z,100228.97
2022-10-07T14:10:10.091Z,100224.63
2022-10-07T14:12:41.000Z,100225.69
2022-10-07T14:15:41.543Z,100218.25
2022-10-07T14:18:11.536Z,100208.56
2022-10-07T14:20:58.219Z,100207.81
2022-10-07T14:23:47.309Z,100199.78
2022-10-07T14:26:39.486Z,100197.78
2022-10-07T14:29:22.731Z,100203.16
2022-10-07T14:32:19.077Z,100183.16
2022-10-07T14:35:04.505Z,100183.47
2022-10-07T14:37:32.018Z,100190.06
2022-10-07T14:40:16.258Z,100182.88
2022-10-07T14:42:43.513Z,100178.97
2022-10-07T14:45:15.320Z,100171.38
2022-10-07T14:47:46.429Z,100173.06
2022-10-07T14:50:13.887Z,100170.63
2022-10-07T14:52:52.310Z,100165.19
2022-10-07T14:55:23.409Z,100162.53
2022-10-07T14:57:51.330Z,100159.94
2022-10-07T15:00:21.046Z,100156.38
2022-10-07T15:02:53.518Z,100153.16
2022-10-07T15:05:21.114Z,100155.91
2022-10-07T15:07:50.230Z,100144.22
2022-10-07T15:10:21.826Z,100153.22
2022-10-07T15:12:49.915Z,100159.72
2022-10-07T15:15:22.792Z,100149.91
2022-10-07T15:17:50.578Z,100148.19
2022-10-07T15:20:17.735Z,100150.16
2022-10-07T15:22:46.129Z,100141.78
2022-10-07T15:25:15.690Z,100145.91
2022-10-07T15:27:42.947Z,100141.53
2022-10-07T15:30:11.250Z,100142.81
2022-10-07T15:32:39.226Z,100144.00
2022-10-07T15:35:06.323Z,100137.38
2022-10-07T15:37:34.505Z,100145.75
2022-10-07T15:40:03.394Z,100141.75
2022-10-07T15:42:30.376Z,100143.03
2022-10-07T15:44:58.370Z,100130.19
2022-10-07T15:47:39.658Z,100141.06
2022-10-07T15:50:07.162Z,100142.34
2022-10-07T15:52:34.098Z,100132.84
2022-10-07T15:55:07.560Z,100136.78
2022-10-07T15:57:38.901Z,100135.00
2022-10-07T16:00:06.884Z,100128.19
2022-10-07T16:02:36.346Z,100129.63
2022-10-07T16:05:04.401Z,100122.44
2022-10-07T16:07:40.341Z,100144.25
2022-10-07T16:10:13.443Z,100140.34
2022-10-07T16:12:42.677Z,100141.84
2022-10-07T16:15:09.702Z,100144.41
2022-10-07T16:17:36.510Z,100138.94
2022-10-07T16:20:11.259Z,100135.22
2022-10-07T16:22:44.671Z,100138.19
2022-10-07T16:25:12.865Z,100141.84
2022-10-07T16:28:17.909Z,100137.97
2022-10-07T16:30:50.355Z,100132.81
2022-10-07T16:33:23.284Z,100132.22
2022-10-07T16:35:50.216Z,100128.25
2022-10-07T16:38:19.030Z,100132.31
2022-10-07T16:40:51.624Z,100130.69
2022-10-07T16:43:18.486Z,100125.41
2022-10-07T16:45:54.372Z,100126.50
2022-10-07T16:48:23.282Z,100133.50
2022-10-07T16:50:51.172Z,100128.91
2022-10-07T16:53:18.045Z,100130.06
2022-10-07T16:55:49.022Z,100131.09
2022-10-07T16:58:16.896Z,100126.44
2022-10-07T17:00:43.876Z,100122.47
2022-10-07T17:03:11.771Z,100118.00
2022-10-07T17:05:39.526Z,100123.34
2022-10-07T17:08:08.399Z,100116.88
2022-10-07T17:10:35.230Z,100117.53
2022-10-07T17:13:04.491Z,100115.19
2022-10-07T17:15:33.590Z,100124.50
2022-10-07T17:18:05.451Z,100122.47
2022-10-07T17:20:33.306Z,100125.81
2022-10-07T17:23:04.457Z,100119.16
2022-10-07T17:25:31.421Z,100118.56
2022-10-07T17:27:59.406Z,100116.25
2022-10-07T17:30:26.401Z,100115.06
2022-10-07T17:32:55.335Z,100122.53
2022-10-07T17:35:22.308Z,100119.06
2022-10-07T17:37:50.936Z,100109.19
2022-10-07T17:40:43.824Z,100113.56
2022-10-07T17:43:10.586Z,100112.13
2022-10-07T17:45:38.067Z,100109.28
2022-10-07T17:48:10.444Z,100107.56
2022-10-07T17:50:39.433Z,100109.22
2022-10-07T17:53:07.758Z,100105.44
2022-10-07T17:55:34.816Z,100103.53
2022-10-07T17:58:12.019Z,100100.19
2022-10-07T18:00:38.929Z,100104.06
2022-10-07T18:03:13.439Z,100097.53
2022-10-07T18:05:40.286Z,100096.91
2022-10-07T18:08:16.361Z,100089.44
2022-10-07T18:10:45.306Z,100097.44
2022-10-07T18:13:32.818Z,100091.31
2022-10-07T18:16:04.927Z,100091.41
2022-10-07T18:18:33.895Z,100087.88
2022-10-07T18:21:04.834Z,100090.25
2022-10-07T18:23:33.676Z,100091.53
2022-10-07T18:26:03.600Z,100081.81
2022-10-07T18:28:34.873Z,100077.50
2022-10-07T18:31:11.496Z,100079.25
2022-10-07T18:33:49.149Z,100081.47
2022-10-07T18:36:25.432Z,100078.97
2022-10-07T18:38:52.692Z,100073.09
2022-10-07T18:41:19.886Z,100066.47
2022-10-07T18:43:51.051Z,100071.00
2022-10-07T18:46:28.762Z,100070.19
2022-10-07T18:48:59.181Z,100070.25
2022-10-07T18:51:34.243Z,100069.00
2022-10-07T18:54:02.176Z,100065.94
2022-10-07T18:56:41.509Z,100065.47
2022-10-07T18:59:10.518Z,100059.44
2022-10-07T19:01:40.820Z,100059.94
2022-10-07T19:04:08.934Z,100057.72
2022-10-07T19:06:44.132Z,100062.97
2022-10-07T19:09:14.913Z,100047.72
2022-10-07T19:11:42.712Z,100062.78
2022-10-07T19:14:13.538Z,100067.47
2022-10-07T19:16:44.578Z,100061.41
2022-10-07T19:19:17.807Z,100067.31
2022-10-07T19:21:48.033Z,100063.25
2022-10-07T19:24:16.332Z,100061.56
2022-10-07T19:26:45.172Z,100062.47
2022-10-07T19:29:13.466Z,100061.91
2022-10-07T19:31:42.830Z,100053.97
2022-10-07T19:34:14.036Z,100060.56
2022-10-07T19:36:47.386Z,100050.75
2022-10-07T19:39:19.872Z,100047.66
2022-10-07T19:41:53.129Z,100052.38
2022-10-07T19:44:20.133Z,100051.25
2022-10-07T19:46:54.595Z,100049.84
2022-10-07T19:49:22.506Z,100049.53
2022-10-07T19:51:49.729Z,100043.38
2022-10-07T19:54:16.690Z,100054.88
2022-10-07T19:56:45.904Z,100042.66
2022-10-07T19:59:30.146Z,100039.75
2022-10-07T20:02:00.967Z,100036.47
2022-10-07T20:04:28.286Z,100034.22
2022-10-07T20:06:59.492Z,100037.00
2022-10-07T20:09:27.953Z,100033.41
2022-10-07T20:11:56.614Z,100029.47
2022-10-07T20:14:23.658Z,100028.78
2022-10-07T20:16:51.786Z,100035.50
2022-10-07T20:19:19.832Z,100024.59
2022-10-07T20:22:06.946Z,100025.13
2022-10-07T20:24:34.816Z,100025.13
2022-10-07T20:27:09.248Z,100027.63
2022-10-07T20:29:56.106Z,100025.72
2022-10-07T20:32:23.819Z,100027.13
2022-10-07T20:34:52.576Z,100023.69
2022-10-07T20:37:26.596Z,100025.41
2022-10-07T20:40:13.508Z,100019.38
2022-10-07T20:42:46.668Z,100017.56
2022-10-07T20:45:13.838Z,100019.13
2022-10-07T20:47:40.791Z,100016.56
2022-10-07T20:50:08.944Z,100017.41
2022-10-07T20:52:36.821Z,100016.81
2022-10-07T20:55:04.044Z,100018.84
2022-10-07T20:57:38.074Z,100026.09
2022-10-07T21:00:13.053Z,100021.59
2022-10-07T21:02:41.330Z,100011.63
2022-10-07T21:05:14.338Z,100011.91
2022-10-07T21:07:43.133Z,100011.75
2022-10-07T21:10:13.209Z,100013.66
2022-10-07T21:12:41.185Z,100015.44
2022-10-07T21:15:10.173Z,100014.59
2022-10-07T21:17:41.384Z,100012.72
2022-10-07T21:20:34.986Z,100009.19
2022-10-07T21:23:02.888Z,100002.50
2022-10-07T21:25:32.965Z,100004.38
2022-10-07T21:28:00.552Z,99998.13
2022-10-07T21:30:33.586Z,100000.88
2022-10-07T21:33:19.256Z,100001.03
2022-10-07T21:35:47.794Z,100008.66
2022-10-07T21:38:15.677Z,100008.78
2022-10-07T21:40:48.526Z,99997.44
2022-10-07T21:43:15.526Z,99998.19
2022-10-07T21:45:44.722Z,100010.56
2022-10-07T21:48:13.728Z,100001.53
2022-10-07T21:50:42.540Z,99992.97
2022-10-07T21:53:34.010Z,99998.41
2022-10-07T21:56:04.941Z,99991.53
2022-10-07T21:58:36.260Z,99993.28
2022-10-07T22:01:08.821Z,99994.53
2022-10-07T22:03:36.721Z,99996.03
2022-10-07T22:06:09.511Z,99998.53
2022-10-07T22:08:41.389Z,99992.56
2022-10-07T22:11:23.696Z,99988.03
2022-10-07T22:13:56.573Z,99986.94
2022-10-07T22:16:57.651Z,99984.41
2022-10-07T22:19:36.552Z,99978.63
2022-10-07T22:22:03.707Z,99974.81
2022-10-07T22:24:32.782Z,99973.31
2022-10-07T22:27:01.692Z,99973.41
2022-10-07T22:29:30.605Z,99969.25
2022-10-07T22:31:58.551Z,99970.06
2022-10-07T22:34:56.345Z,99950.72
2022-10-07T22:37:32.194Z,99954.84
2022-10-07T22:39:59.077Z,99955.25
2022-10-07T22:42:26.459Z,99947.19
2022-10-07T22:44:53.277Z,99943.31
2022-10-07T22:47:21.426Z,99955.50
2022-10-07T22:49:48.762Z,99945.66
2022-10-07T22:52:16.709Z,99939.09
2022-10-07T22:54:44.707Z,99935.75
2022-10-07T22:57:11.562Z,99942.16
2022-10-07T22:59:39.233Z,99939.34
2022-10-07T23:02:11.234Z,99935.06
2022-10-07T23:04:39.070Z,99924.84
2022-10-07T23:07:18.264Z,99933.06
2022-10-07T23:09:52.926Z,99928.19
2022-10-07T23:12:19.849Z,99929.31
2022-10-07T23:14:46.827Z,99924.72
2022-10-07T23:17:14.665Z,99923.91
2022-10-07T23:19:42.772Z,99922.56
2022-10-07T23:22:10.732Z,99929.75
2022-10-07T23:24:37.631Z,99925.88
2022-10-07T23:27:07.481Z,99934.03
2022-10-07T23:29:34.458Z,99927.94
2022-10-07T23:32:02.496Z,99929.91
2022-10-07T23:34:41.653Z,99928.47
2022-10-07T23:37:25.455Z,99922.16
2022-10-07T23:39:52.438Z,99922.88
2022-10-07T23:42:20.757Z,99925.94
2022-10-07T23:44:47.663Z,99917.41
2022-10-07T23:47:24.863Z,99914.53
2022-10-07T23:49:55.736Z,99907.78
2022-10-07T23:52:29.454Z,99909.97
2022-10-07T23:54:59.511Z,99907.09
2022-10-07T23:57:26.592Z,99907.22
2022-10-07T23:59:55.432Z,99894.03
